sensor_id;sensor_type;location;lat;lon;timestamp;P1;durP1;ratioP1;P2;durP2;ratioP2
34783;SDS011;20998;51.388;7.032;2023-08-12T00:00:28;25.30;;;14.30;;
34783;SDS011;20998;51.388;7.032;2023-08-12T00:02:54;25.83;;;13.83;;
34783;SDS011;20998;51.388;7.032;2023-08-12T00:05:20;32.07;;;14.27;;
34783;SDS011;20998;51.388;7.032;2023-08-12T00:07:47;23.53;;;12.43;;
34783;SDS011;20998;51.388;7.032;2023-08-12T00:10:13;21.10;;;13.27;;
34783;SDS011;20998;51.388;7.032;2023-08-12T00:12:39;21.30;;;14.07;;
34783;SDS011;20998;51.388;7.032;2023-08-12T00:15:06;27.10;;;15.17;;
34783;SDS011;20998;51.388;7.032;2023-08-12T00:17:33;26.03;;;15.40;;
34783;SDS011;20998;51.388;7.032;2023-08-12T00:19:59;25.17;;;14.00;;
34783;SDS011;20998;51.388;7.032;2023-08-12T00:22:25;35.30;;;16.00;;
34783;SDS011;20998;51.388;7.032;2023-08-12T00:24:52;27.30;;;15.13;;
34783;SDS011;20998;51.388;7.032;2023-08-12T00:27:17;29.63;;;15.87;;
34783;SDS011;20998;51.388;7.032;2023-08-12T00:29:43;27.27;;;14.33;;
34783;SDS011;20998;51.388;7.032;2023-08-12T00:32:09;26.43;;;15.50;;
34783;SDS011;20998;51.388;7.032;2023-08-12T00:34:36;28.90;;;14.67;;
34783;SDS011;20998;51.388;7.032;2023-08-12T00:37:02;27.13;;;14.47;;
34783;SDS011;20998;51.388;7.032;2023-08-12T00:39:28;28.63;;;15.13;;
34783;SDS011;20998;51.388;7.032;2023-08-12T00:41:53;32.50;;;15.87;;
34783;SDS011;20998;51.388;7.032;2023-08-12T00:44:19;24.60;;;15.10;;
34783;SDS011;20998;51.388;7.032;2023-08-12T00:46:45;22.07;;;13.47;;
34783;SDS011;20998;51.388;7.032;2023-08-12T00:49:11;27.03;;;15.30;;
34783;SDS011;20998;51.388;7.032;2023-08-12T00:51:39;23.43;;;13.03;;
34783;SDS011;20998;51.388;7.032;2023-08-12T00:54:07;25.00;;;13.30;;
34783;SDS011;20998;51.388;7.032;2023-08-12T00:56:37;26.57;;;13.77;;
34783;SDS011;20998;51.388;7.032;2023-08-12T00:59:04;21.30;;;13.03;;
34783;SDS011;20998;51.388;7.032;2023-08-12T01:01:32;23.13;;;12.27;;
34783;SDS011;20998;51.388;7.032;2023-08-12T01:03:58;21.93;;;13.33;;
34783;SDS011;20998;51.388;7.032;2023-08-12T01:06:24;24.67;;;13.67;;
34783;SDS011;20998;51.388;7.032;2023-08-12T01:08:50;22.83;;;14.13;;
34783;SDS011;20998;51.388;7.032;2023-08-12T01:14:06;24.03;;;12.57;;
34783;SDS011;20998;51.388;7.032;2023-08-12T01:16:39;25.97;;;13.33;;
34783;SDS011;20998;51.388;7.032;2023-08-12T01:19:10;22.10;;;12.33;;
34783;SDS011;20998;51.388;7.032;2023-08-12T01:21:40;20.20;;;10.70;;
34783;SDS011;20998;51.388;7.032;2023-08-12T01:24:08;19.60;;;10.33;;
34783;SDS011;20998;51.388;7.032;2023-08-12T01:26:34;15.70;;;9.33;;
34783;SDS011;20998;51.388;7.032;2023-08-12T01:29:00;18.10;;;9.47;;
34783;SDS011;20998;51.388;7.032;2023-08-12T01:34:02;27.00;;;9.23;;
34783;SDS011;20998;51.388;7.032;2023-08-12T01:36:51;13.50;;;8.23;;
34783;SDS011;20998;51.388;7.032;2023-08-12T01:39:20;14.13;;;8.20;;
34783;SDS011;20998;51.388;7.032;2023-08-12T01:41:48;20.03;;;8.13;;
34783;SDS011;20998;51.388;7.032;2023-08-12T01:44:16;13.90;;;7.67;;
34783;SDS011;20998;51.388;7.032;2023-08-12T01:46:43;13.43;;;6.97;;
34783;SDS011;20998;51.388;7.032;2023-08-12T01:49:09;9.90;;;6.53;;
34783;SDS011;20998;51.388;7.032;2023-08-12T01:51:35;10.23;;;6.57;;
34783;SDS011;20998;51.388;7.032;2023-08-12T01:54:01;11.23;;;6.17;;
34783;SDS011;20998;51.388;7.032;2023-08-12T01:56:27;9.67;;;5.73;;
34783;SDS011;20998;51.388;7.032;2023-08-12T01:58:53;10.83;;;5.93;;
34783;SDS011;20998;51.388;7.032;2023-08-12T02:01:19;12.17;;;5.73;;
34783;SDS011;20998;51.388;7.032;2023-08-12T02:03:45;10.10;;;5.60;;
34783;SDS011;20998;51.388;7.032;2023-08-12T02:06:11;8.83;;;5.77;;
34783;SDS011;20998;51.388;7.032;2023-08-12T02:08:37;10.47;;;6.17;;
34783;SDS011;20998;51.388;7.032;2023-08-12T02:11:03;8.63;;;6.37;;
34783;SDS011;20998;51.388;7.032;2023-08-12T02:13:29;10.53;;;5.67;;
34783;SDS011;20998;51.388;7.032;2023-08-12T02:15:55;12.50;;;6.27;;
34783;SDS011;20998;51.388;7.032;2023-08-12T02:18:22;9.47;;;5.70;;
34783;SDS011;20998;51.388;7.032;2023-08-12T02:20:48;9.00;;;5.07;;
34783;SDS011;20998;51.388;7.032;2023-08-12T02:23:13;8.13;;;4.80;;
34783;SDS011;20998;51.388;7.032;2023-08-12T02:25:39;8.17;;;4.63;;
34783;SDS011;20998;51.388;7.032;2023-08-12T02:28:05;11.00;;;5.40;;
34783;SDS011;20998;51.388;7.032;2023-08-12T02:30:30;8.53;;;5.10;;
34783;SDS011;20998;51.388;7.032;2023-08-12T02:32:56;10.60;;;5.33;;
34783;SDS011;20998;51.388;7.032;2023-08-12T02:35:23;11.63;;;5.60;;
34783;SDS011;20998;51.388;7.032;2023-08-12T02:37:48;7.77;;;5.20;;
34783;SDS011;20998;51.388;7.032;2023-08-12T02:40:15;8.70;;;4.80;;
34783;SDS011;20998;51.388;7.032;2023-08-12T02:42:41;8.20;;;4.97;;
34783;SDS011;20998;51.388;7.032;2023-08-12T02:45:07;9.27;;;5.20;;
34783;SDS011;20998;51.388;7.032;2023-08-12T02:47:32;10.93;;;4.63;;
34783;SDS011;20998;51.388;7.032;2023-08-12T02:49:58;12.13;;;4.70;;
34783;SDS011;20998;51.388;7.032;2023-08-12T02:52:24;6.27;;;4.20;;
34783;SDS011;20998;51.388;7.032;2023-08-12T02:54:50;13.33;;;5.50;;
34783;SDS011;20998;51.388;7.032;2023-08-12T02:57:16;8.67;;;4.70;;
34783;SDS011;20998;51.388;7.032;2023-08-12T02:59:42;11.37;;;4.90;;
34783;SDS011;20998;51.388;7.032;2023-08-12T03:02:07;10.90;;;5.90;;
34783;SDS011;20998;51.388;7.032;2023-08-12T03:04:33;11.17;;;5.27;;
34783;SDS011;20998;51.388;7.032;2023-08-12T03:06:59;9.27;;;5.17;;
34783;SDS011;20998;51.388;7.032;2023-08-12T03:09:25;9.70;;;5.13;;
34783;SDS011;20998;51.388;7.032;2023-08-12T03:11:51;11.70;;;6.33;;
34783;SDS011;20998;51.388;7.032;2023-08-12T03:14:17;12.93;;;6.70;;
34783;SDS011;20998;51.388;7.032;2023-08-12T03:16:43;11.30;;;6.53;;
34783;SDS011;20998;51.388;7.032;2023-08-12T03:19:09;12.10;;;7.10;;
34783;SDS011;20998;51.388;7.032;2023-08-12T03:21:34;13.23;;;7.00;;
34783;SDS011;20998;51.388;7.032;2023-08-12T03:24:00;14.40;;;7.80;;
34783;SDS011;20998;51.388;7.032;2023-08-12T03:26:26;15.90;;;6.63;;
34783;SDS011;20998;51.388;7.032;2023-08-12T03:28:52;12.70;;;6.67;;
34783;SDS011;20998;51.388;7.032;2023-08-12T03:31:18;13.17;;;7.03;;
34783;SDS011;20998;51.388;7.032;2023-08-12T03:33:44;12.07;;;7.57;;
34783;SDS011;20998;51.388;7.032;2023-08-12T03:36:10;10.93;;;6.60;;
34783;SDS011;20998;51.388;7.032;2023-08-12T03:38:36;8.97;;;6.23;;
34783;SDS011;20998;51.388;7.032;2023-08-12T03:41:02;15.83;;;7.20;;
34783;SDS011;20998;51.388;7.032;2023-08-12T03:43:28;15.00;;;6.70;;
34783;SDS011;20998;51.388;7.032;2023-08-12T03:45:54;8.53;;;6.10;;
34783;SDS011;20998;51.388;7.032;2023-08-12T03:48:20;17.20;;;6.90;;
34783;SDS011;20998;51.388;7.032;2023-08-12T03:50:46;12.47;;;6.90;;
34783;SDS011;20998;51.388;7.032;2023-08-12T03:53:12;14.27;;;6.67;;
34783;SDS011;20998;51.388;7.032;2023-08-12T03:55:38;10.00;;;6.40;;
34783;SDS011;20998;51.388;7.032;2023-08-12T03:58:04;13.17;;;6.77;;
34783;SDS011;20998;51.388;7.032;2023-08-12T04:00:30;11.83;;;5.77;;
34783;SDS011;20998;51.388;7.032;2023-08-12T04:02:56;10.80;;;6.23;;
34783;SDS011;20998;51.388;7.032;2023-08-12T04:05:22;10.10;;;5.30;;
34783;SDS011;20998;51.388;7.032;2023-08-12T04:07:48;6.73;;;4.67;;
34783;SDS011;20998;51.388;7.032;2023-08-12T04:10:14;12.43;;;5.57;;
34783;SDS011;20998;51.388;7.032;2023-08-12T04:12:40;8.87;;;5.43;;
34783;SDS011;20998;51.388;7.032;2023-08-12T04:15:07;11.83;;;5.43;;
34783;SDS011;20998;51.388;7.032;2023-08-12T04:17:33;10.30;;;5.30;;
34783;SDS011;20998;51.388;7.032;2023-08-12T04:19:59;9.23;;;5.03;;
34783;SDS011;20998;51.388;7.032;2023-08-12T04:22:26;10.90;;;5.53;;
34783;SDS011;20998;51.388;7.032;2023-08-12T04:24:53;10.37;;;5.30;;
34783;SDS011;20998;51.388;7.032;2023-08-12T04:27:19;12.10;;;5.40;;
34783;SDS011;20998;51.388;7.032;2023-08-12T04:29:45;16.60;;;5.40;;
34783;SDS011;20998;51.388;7.032;2023-08-12T04:32:11;7.47;;;4.67;;
34783;SDS011;20998;51.388;7.032;2023-08-12T04:34:37;7.73;;;4.97;;
34783;SDS011;20998;51.388;7.032;2023-08-12T04:37:03;5.70;;;4.67;;
34783;SDS011;20998;51.388;7.032;2023-08-12T04:39:28;7.47;;;5.73;;
34783;SDS011;20998;51.388;7.032;2023-08-12T04:41:54;6.63;;;4.87;;
34783;SDS011;20998;51.388;7.032;2023-08-12T04:44:20;8.97;;;5.47;;
34783;SDS011;20998;51.388;7.032;2023-08-12T04:46:46;9.17;;;6.17;;
34783;SDS011;20998;51.388;7.032;2023-08-12T04:49:12;8.60;;;5.03;;
34783;SDS011;20998;51.388;7.032;2023-08-12T04:51:38;6.37;;;5.70;;
34783;SDS011;20998;51.388;7.032;2023-08-12T04:54:04;9.53;;;5.80;;
34783;SDS011;20998;51.388;7.032;2023-08-12T04:56:30;16.00;;;5.47;;
34783;SDS011;20998;51.388;7.032;2023-08-12T04:58:56;7.50;;;4.70;;
34783;SDS011;20998;51.388;7.032;2023-08-12T05:01:22;10.93;;;5.77;;
34783;SDS011;20998;51.388;7.032;2023-08-12T05:03:48;7.17;;;5.13;;
34783;SDS011;20998;51.388;7.032;2023-08-12T05:06:14;8.80;;;5.50;;
34783;SDS011;20998;51.388;7.032;2023-08-12T05:08:40;5.40;;;4.47;;
34783;SDS011;20998;51.388;7.032;2023-08-12T05:11:06;9.13;;;5.53;;
34783;SDS011;20998;51.388;7.032;2023-08-12T05:13:32;15.97;;;5.97;;
34783;SDS011;20998;51.388;7.032;2023-08-12T05:15:58;8.43;;;5.73;;
34783;SDS011;20998;51.388;7.032;2023-08-12T05:18:24;12.80;;;6.07;;
34783;SDS011;20998;51.388;7.032;2023-08-12T05:20:50;16.63;;;5.67;;
34783;SDS011;20998;51.388;7.032;2023-08-12T05:23:16;9.43;;;6.03;;
34783;SDS011;20998;51.388;7.032;2023-08-12T05:25:42;7.77;;;5.13;;
34783;SDS011;20998;51.388;7.032;2023-08-12T05:28:08;15.00;;;5.87;;
34783;SDS011;20998;51.388;7.032;2023-08-12T05:30:35;7.07;;;5.17;;
34783;SDS011;20998;51.388;7.032;2023-08-12T05:33:01;10.63;;;5.50;;
34783;SDS011;20998;51.388;7.032;2023-08-12T05:35:27;12.17;;;4.83;;
34783;SDS011;20998;51.388;7.032;2023-08-12T05:37:53;12.20;;;5.77;;
34783;SDS011;20998;51.388;7.032;2023-08-12T05:40:19;11.33;;;5.00;;
34783;SDS011;20998;51.388;7.032;2023-08-12T05:42:45;8.37;;;4.90;;
34783;SDS011;20998;51.388;7.032;2023-08-12T05:45:11;13.50;;;5.30;;
34783;SDS011;20998;51.388;7.032;2023-08-12T05:47:37;12.47;;;4.77;;
34783;SDS011;20998;51.388;7.032;2023-08-12T05:50:03;10.37;;;4.90;;
34783;SDS011;20998;51.388;7.032;2023-08-12T05:52:29;15.10;;;5.87;;
34783;SDS011;20998;51.388;7.032;2023-08-12T05:54:55;11.63;;;5.20;;
34783;SDS011;20998;51.388;7.032;2023-08-12T05:57:21;9.53;;;5.30;;
34783;SDS011;20998;51.388;7.032;2023-08-12T05:59:47;6.30;;;4.73;;
34783;SDS011;20998;51.388;7.032;2023-08-12T06:02:13;9.40;;;4.93;;
34783;SDS011;20998;51.388;7.032;2023-08-12T06:04:39;8.60;;;4.87;;
34783;SDS011;20998;51.388;7.032;2023-08-12T06:07:05;6.83;;;4.70;;
34783;SDS011;20998;51.388;7.032;2023-08-12T06:09:31;6.43;;;4.80;;
34783;SDS011;20998;51.388;7.032;2023-08-12T06:11:57;9.40;;;5.23;;
34783;SDS011;20998;51.388;7.032;2023-08-12T06:14:23;7.60;;;5.07;;
34783;SDS011;20998;51.388;7.032;2023-08-12T06:16:49;9.17;;;5.03;;
34783;SDS011;20998;51.388;7.032;2023-08-12T06:19:15;9.00;;;4.47;;
34783;SDS011;20998;51.388;7.032;2023-08-12T06:21:41;6.83;;;4.60;;
34783;SDS011;20998;51.388;7.032;2023-08-12T06:24:07;7.77;;;4.90;;
34783;SDS011;20998;51.388;7.032;2023-08-12T06:26:33;6.00;;;4.07;;
34783;SDS011;20998;51.388;7.032;2023-08-12T06:28:59;6.67;;;4.43;;
34783;SDS011;20998;51.388;7.032;2023-08-12T06:31:24;12.23;;;4.63;;
34783;SDS011;20998;51.388;7.032;2023-08-12T06:33:50;8.93;;;4.67;;
34783;SDS011;20998;51.388;7.032;2023-08-12T06:36:16;13.67;;;4.17;;
34783;SDS011;20998;51.388;7.032;2023-08-12T06:38:42;7.47;;;4.00;;
34783;SDS011;20998;51.388;7.032;2023-08-12T06:41:08;12.40;;;4.20;;
34783;SDS011;20998;51.388;7.032;2023-08-12T06:43:34;7.17;;;3.87;;
34783;SDS011;20998;51.388;7.032;2023-08-12T06:46:00;9.13;;;4.20;;
34783;SDS011;20998;51.388;7.032;2023-08-12T06:48:26;4.67;;;3.70;;
34783;SDS011;20998;51.388;7.032;2023-08-12T06:50:55;5.93;;;4.10;;
34783;SDS011;20998;51.388;7.032;2023-08-12T06:53:21;9.37;;;4.03;;
34783;SDS011;20998;51.388;7.032;2023-08-12T06:55:47;7.20;;;4.10;;
34783;SDS011;20998;51.388;7.032;2023-08-12T06:58:13;7.37;;;3.70;;
34783;SDS011;20998;51.388;7.032;2023-08-12T07:00:40;5.13;;;3.50;;
34783;SDS011;20998;51.388;7.032;2023-08-12T07:03:06;8.13;;;3.60;;
34783;SDS011;20998;51.388;7.032;2023-08-12T07:05:32;6.47;;;4.40;;
34783;SDS011;20998;51.388;7.032;2023-08-12T07:07:58;7.63;;;4.20;;
34783;SDS011;20998;51.388;7.032;2023-08-12T07:10:24;6.47;;;3.80;;
34783;SDS011;20998;51.388;7.032;2023-08-12T07:12:50;6.23;;;3.70;;
34783;SDS011;20998;51.388;7.032;2023-08-12T07:15:16;5.87;;;3.77;;
34783;SDS011;20998;51.388;7.032;2023-08-12T07:17:41;8.13;;;3.63;;
34783;SDS011;20998;51.388;7.032;2023-08-12T07:20:07;4.40;;;3.43;;
34783;SDS011;20998;51.388;7.032;2023-08-12T07:22:33;6.77;;;4.23;;
34783;SDS011;20998;51.388;7.032;2023-08-12T07:24:59;7.57;;;3.90;;
34783;SDS011;20998;51.388;7.032;2023-08-12T07:27:26;6.87;;;4.30;;
34783;SDS011;20998;51.388;7.032;2023-08-12T07:29:52;8.80;;;4.03;;
34783;SDS011;20998;51.388;7.032;2023-08-12T07:32:18;7.83;;;4.50;;
34783;SDS011;20998;51.388;7.032;2023-08-12T07:34:44;9.70;;;4.47;;
34783;SDS011;20998;51.388;7.032;2023-08-12T07:37:10;6.83;;;5.60;;
34783;SDS011;20998;51.388;7.032;2023-08-12T07:39:36;8.63;;;5.93;;
34783;SDS011;20998;51.388;7.032;2023-08-12T07:42:01;5.87;;;4.50;;
34783;SDS011;20998;51.388;7.032;2023-08-12T07:44:28;5.77;;;4.37;;
34783;SDS011;20998;51.388;7.032;2023-08-12T07:46:54;12.57;;;4.70;;
34783;SDS011;20998;51.388;7.032;2023-08-12T07:49:19;7.73;;;5.63;;
34783;SDS011;20998;51.388;7.032;2023-08-12T07:51:45;5.33;;;4.47;;
34783;SDS011;20998;51.388;7.032;2023-08-12T07:54:11;10.33;;;5.40;;
34783;SDS011;20998;51.388;7.032;2023-08-12T07:56:37;7.17;;;5.27;;
34783;SDS011;20998;51.388;7.032;2023-08-12T07:59:03;11.90;;;5.23;;
34783;SDS011;20998;51.388;7.032;2023-08-12T08:01:29;6.53;;;5.27;;
34783;SDS011;20998;51.388;7.032;2023-08-12T08:03:54;6.87;;;5.17;;
34783;SDS011;20998;51.388;7.032;2023-08-12T08:06:21;9.17;;;5.30;;
34783;SDS011;20998;51.388;7.032;2023-08-12T08:08:48;7.60;;;5.87;;
34783;SDS011;20998;51.388;7.032;2023-08-12T08:11:14;7.03;;;5.00;;
34783;SDS011;20998;51.388;7.032;2023-08-12T08:13:40;9.63;;;5.70;;
34783;SDS011;20998;51.388;7.032;2023-08-12T08:16:06;8.07;;;5.60;;
34783;SDS011;20998;51.388;7.032;2023-08-12T08:18:32;6.40;;;5.53;;
34783;SDS011;20998;51.388;7.032;2023-08-12T08:20:58;14.17;;;6.23;;
34783;SDS011;20998;51.388;7.032;2023-08-12T08:23:24;10.03;;;5.87;;
34783;SDS011;20998;51.388;7.032;2023-08-12T08:25:50;11.50;;;6.20;;
34783;SDS011;20998;51.388;7.032;2023-08-12T08:28:16;7.23;;;5.87;;
34783;SDS011;20998;51.388;7.032;2023-08-12T08:30:41;7.90;;;5.90;;
34783;SDS011;20998;51.388;7.032;2023-08-12T08:33:08;9.27;;;6.67;;
34783;SDS011;20998;51.388;7.032;2023-08-12T08:35:34;9.00;;;5.90;;
34783;SDS011;20998;51.388;7.032;2023-08-12T08:38:00;11.40;;;6.80;;
34783;SDS011;20998;51.388;7.032;2023-08-12T08:40:26;8.13;;;6.17;;
34783;SDS011;20998;51.388;7.032;2023-08-12T08:42:52;7.87;;;6.00;;
34783;SDS011;20998;51.388;7.032;2023-08-12T08:45:18;12.33;;;5.70;;
34783;SDS011;20998;51.388;7.032;2023-08-12T08:47:46;7.30;;;5.33;;
34783;SDS011;20998;51.388;7.032;2023-08-12T08:50:12;10.43;;;6.13;;
34783;SDS011;20998;51.388;7.032;2023-08-12T08:52:38;8.37;;;5.87;;
34783;SDS011;20998;51.388;7.032;2023-08-12T08:55:05;8.40;;;5.77;;
34783;SDS011;20998;51.388;7.032;2023-08-12T08:57:31;8.93;;;5.40;;
34783;SDS011;20998;51.388;7.032;2023-08-12T08:59:57;7.27;;;5.80;;
34783;SDS011;20998;51.388;7.032;2023-08-12T09:02:23;8.53;;;5.20;;
34783;SDS011;20998;51.388;7.032;2023-08-12T09:04:50;8.27;;;4.97;;
34783;SDS011;20998;51.388;7.032;2023-08-12T09:07:16;6.83;;;4.50;;
34783;SDS011;20998;51.388;7.032;2023-08-12T09:09:46;5.97;;;4.73;;
34783;SDS011;20998;51.388;7.032;2023-08-12T09:12:13;5.87;;;4.43;;
34783;SDS011;20998;51.388;7.032;2023-08-12T09:14:41;5.53;;;4.40;;
34783;SDS011;20998;51.388;7.032;2023-08-12T09:17:07;6.10;;;4.10;;
34783;SDS011;20998;51.388;7.032;2023-08-12T09:19:34;6.00;;;3.97;;
34783;SDS011;20998;51.388;7.032;2023-08-12T09:22:00;7.93;;;3.30;;
34783;SDS011;20998;51.388;7.032;2023-08-12T09:24:28;3.70;;;3.33;;
34783;SDS011;20998;51.388;7.032;2023-08-12T09:26:54;5.80;;;3.43;;
34783;SDS011;20998;51.388;7.032;2023-08-12T09:29:29;6.77;;;3.30;;
34783;SDS011;20998;51.388;7.032;2023-08-12T09:32:18;5.47;;;3.40;;
34783;SDS011;20998;51.388;7.032;2023-08-12T09:37:15;3.20;;;2.50;;
34783;SDS011;20998;51.388;7.032;2023-08-12T09:39:41;4.30;;;2.93;;
34783;SDS011;20998;51.388;7.032;2023-08-12T09:42:07;3.53;;;3.00;;
34783;SDS011;20998;51.388;7.032;2023-08-12T09:44:37;5.17;;;3.00;;
34783;SDS011;20998;51.388;7.032;2023-08-12T09:47:03;4.57;;;2.90;;
34783;SDS011;20998;51.388;7.032;2023-08-12T09:49:29;5.13;;;2.93;;
34783;SDS011;20998;51.388;7.032;2023-08-12T09:51:55;2.47;;;2.20;;
34783;SDS011;20998;51.388;7.032;2023-08-12T09:54:22;3.90;;;2.50;;
34783;SDS011;20998;51.388;7.032;2023-08-12T09:56:49;2.60;;;2.20;;
34783;SDS011;20998;51.388;7.032;2023-08-12T09:59:21;2.80;;;1.80;;
34783;SDS011;20998;51.388;7.032;2023-08-12T10:01:48;4.47;;;1.80;;
34783;SDS011;20998;51.388;7.032;2023-08-12T10:04:16;2.83;;;2.07;;
34783;SDS011;20998;51.388;7.032;2023-08-12T10:06:43;2.13;;;1.80;;
34783;SDS011;20998;51.388;7.032;2023-08-12T10:09:10;2.93;;;2.17;;
34783;SDS011;20998;51.388;7.032;2023-08-12T10:11:36;2.30;;;1.80;;
34783;SDS011;20998;51.388;7.032;2023-08-12T10:14:03;3.30;;;1.90;;
34783;SDS011;20998;51.388;7.032;2023-08-12T10:16:29;2.40;;;1.80;;
34783;SDS011;20998;51.388;7.032;2023-08-12T10:18:56;1.70;;;1.60;;
34783;SDS011;20998;51.388;7.032;2023-08-12T10:21:23;2.57;;;1.70;;
34783;SDS011;20998;51.388;7.032;2023-08-12T10:23:50;2.13;;;1.80;;
34783;SDS011;20998;51.388;7.032;2023-08-12T10:26:17;2.50;;;1.77;;
34783;SDS011;20998;51.388;7.032;2023-08-12T10:28:43;3.20;;;1.70;;
34783;SDS011;20998;51.388;7.032;2023-08-12T10:31:10;1.60;;;1.43;;
34783;SDS011;20998;51.388;7.032;2023-08-12T10:33:40;1.83;;;1.67;;
34783;SDS011;20998;51.388;7.032;2023-08-12T10:36:06;2.80;;;1.60;;
34783;SDS011;20998;51.388;7.032;2023-08-12T10:38:32;4.73;;;1.60;;
34783;SDS011;20998;51.388;7.032;2023-08-12T10:41:18;3.10;;;1.73;;
34783;SDS011;20998;51.388;7.032;2023-08-12T10:46:35;5.80;;;1.60;;
34783;SDS011;20998;51.388;7.032;2023-08-12T10:49:08;2.63;;;1.53;;
34783;SDS011;20998;51.388;7.032;2023-08-12T10:51:48;2.27;;;1.37;;
34783;SDS011;20998;51.388;7.032;2023-08-12T10:54:21;1.57;;;1.30;;
34783;SDS011;20998;51.388;7.032;2023-08-12T11:02:16;2.90;;;1.93;;
34783;SDS011;20998;51.388;7.032;2023-08-12T11:04:57;2.03;;;1.50;;
34783;SDS011;20998;51.388;7.032;2023-08-12T11:07:39;2.23;;;1.30;;
34783;SDS011;20998;51.388;7.032;2023-08-12T11:10:09;1.30;;;1.20;;
34783;SDS011;20998;51.388;7.032;2023-08-12T11:12:36;2.17;;;1.30;;
34783;SDS011;20998;51.388;7.032;2023-08-12T11:15:02;2.43;;;1.40;;
34783;SDS011;20998;51.388;7.032;2023-08-12T11:18:02;1.67;;;1.40;;
34783;SDS011;20998;51.388;7.032;2023-08-12T11:20:21;1.27;;;1.10;;
34783;SDS011;20998;51.388;7.032;2023-08-12T11:22:47;1.30;;;1.20;;
34783;SDS011;20998;51.388;7.032;2023-08-12T11:25:13;4.00;;;1.53;;
34783;SDS011;20998;51.388;7.032;2023-08-12T11:27:43;1.60;;;1.37;;
34783;SDS011;20998;51.388;7.032;2023-08-12T11:30:11;1.97;;;1.83;;
34783;SDS011;20998;51.388;7.032;2023-08-12T11:32:40;1.20;;;1.10;;
34783;SDS011;20998;51.388;7.032;2023-08-12T11:35:06;2.37;;;1.57;;
34783;SDS011;20998;51.388;7.032;2023-08-12T11:37:34;1.40;;;1.13;;
34783;SDS011;20998;51.388;7.032;2023-08-12T11:40:02;3.90;;;1.30;;
34783;SDS011;20998;51.388;7.032;2023-08-12T11:42:29;1.70;;;1.50;;
34783;SDS011;20998;51.388;7.032;2023-08-12T11:44:55;0.90;;;0.90;;
34783;SDS011;20998;51.388;7.032;2023-08-12T11:47:20;1.20;;;1.10;;
34783;SDS011;20998;51.388;7.032;2023-08-12T11:49:46;2.37;;;1.40;;
34783;SDS011;20998;51.388;7.032;2023-08-12T11:52:12;0.97;;;0.97;;
34783;SDS011;20998;51.388;7.032;2023-08-12T11:54:39;4.73;;;1.20;;
34783;SDS011;20998;51.388;7.032;2023-08-12T11:57:05;1.53;;;1.23;;
34783;SDS011;20998;51.388;7.032;2023-08-12T11:59:31;2.67;;;1.30;;
34783;SDS011;20998;51.388;7.032;2023-08-12T12:01:57;1.23;;;1.13;;
34783;SDS011;20998;51.388;7.032;2023-08-12T12:04:23;1.20;;;1.10;;
34783;SDS011;20998;51.388;7.032;2023-08-12T12:06:49;2.00;;;1.67;;
34783;SDS011;20998;51.388;7.032;2023-08-12T12:09:15;5.80;;;1.87;;
34783;SDS011;20998;51.388;7.032;2023-08-12T12:11:43;1.73;;;1.63;;
34783;SDS011;20998;51.388;7.032;2023-08-12T12:14:09;2.53;;;2.10;;
34783;SDS011;20998;51.388;7.032;2023-08-12T12:16:39;3.40;;;1.50;;
34783;SDS011;20998;51.388;7.032;2023-08-12T12:19:19;1.60;;;1.20;;
34783;SDS011;20998;51.388;7.032;2023-08-12T12:21:50;1.50;;;1.40;;
34783;SDS011;20998;51.388;7.032;2023-08-12T12:24:17;1.70;;;1.33;;
34783;SDS011;20998;51.388;7.032;2023-08-12T12:26:44;1.20;;;1.10;;
34783;SDS011;20998;51.388;7.032;2023-08-12T12:29:11;1.00;;;1.00;;
34783;SDS011;20998;51.388;7.032;2023-08-12T12:31:38;1.15;;;1.02;;
34783;SDS011;20998;51.388;7.032;2023-08-12T12:34:05;0.90;;;0.90;;
34783;SDS011;20998;51.388;7.032;2023-08-12T12:36:32;0.52;;;0.52;;
34783;SDS011;20998;51.388;7.032;2023-08-12T12:39:00;2.45;;;1.02;;
34783;SDS011;20998;51.388;7.032;2023-08-12T12:41:26;0.90;;;0.90;;
34783;SDS011;20998;51.388;7.032;2023-08-12T12:43:52;4.15;;;1.63;;
34783;SDS011;20998;51.388;7.032;2023-08-12T12:46:18;1.58;;;1.23;;
34783;SDS011;20998;51.388;7.032;2023-08-12T12:48:44;2.37;;;1.37;;
34783;SDS011;20998;51.388;7.032;2023-08-12T12:51:11;2.10;;;1.63;;
34783;SDS011;20998;51.388;7.032;2023-08-12T12:53:37;2.80;;;1.97;;
34783;SDS011;20998;51.388;7.032;2023-08-12T12:56:03;6.00;;;2.50;;
34783;SDS011;20998;51.388;7.032;2023-08-12T12:58:30;11.43;;;2.60;;
34783;SDS011;20998;51.388;7.032;2023-08-12T13:01:00;3.37;;;2.33;;
34783;SDS011;20998;51.388;7.032;2023-08-12T13:03:26;2.87;;;2.17;;
34783;SDS011;20998;51.388;7.032;2023-08-12T13:05:52;3.30;;;2.40;;
34783;SDS011;20998;51.388;7.032;2023-08-12T13:08:18;6.27;;;2.33;;
34783;SDS011;20998;51.388;7.032;2023-08-12T13:10:44;5.03;;;2.70;;
34783;SDS011;20998;51.388;7.032;2023-08-12T13:13:12;4.20;;;3.00;;
34783;SDS011;20998;51.388;7.032;2023-08-12T13:15:39;4.10;;;3.13;;
34783;SDS011;20998;51.388;7.032;2023-08-12T13:18:05;4.53;;;3.30;;
34783;SDS011;20998;51.388;7.032;2023-08-12T13:20:31;5.77;;;3.43;;
34783;SDS011;20998;51.388;7.032;2023-08-12T13:22:56;5.77;;;3.87;;
34783;SDS011;20998;51.388;7.032;2023-08-12T13:25:22;5.00;;;3.53;;
34783;SDS011;20998;51.388;7.032;2023-08-12T13:27:48;7.07;;;4.90;;
34783;SDS011;20998;51.388;7.032;2023-08-12T13:30:14;7.17;;;4.77;;
34783;SDS011;20998;51.388;7.032;2023-08-12T13:32:40;6.10;;;4.10;;
34783;SDS011;20998;51.388;7.032;2023-08-12T13:35:06;6.27;;;4.50;;
34783;SDS011;20998;51.388;7.032;2023-08-12T13:37:32;5.40;;;3.50;;
34783;SDS011;20998;51.388;7.032;2023-08-12T13:39:58;4.83;;;3.43;;
34783;SDS011;20998;51.388;7.032;2023-08-12T13:42:25;5.33;;;3.67;;
34783;SDS011;20998;51.388;7.032;2023-08-12T13:44:51;5.80;;;4.30;;
34783;SDS011;20998;51.388;7.032;2023-08-12T13:47:17;7.53;;;4.03;;
34783;SDS011;20998;51.388;7.032;2023-08-12T13:49:42;5.03;;;3.83;;
34783;SDS011;20998;51.388;7.032;2023-08-12T13:52:08;5.00;;;4.10;;
34783;SDS011;20998;51.388;7.032;2023-08-12T13:54:34;4.30;;;3.17;;
34783;SDS011;20998;51.388;7.032;2023-08-12T13:57:00;4.13;;;3.17;;
34783;SDS011;20998;51.388;7.032;2023-08-12T13:59:27;3.40;;;2.70;;
34783;SDS011;20998;51.388;7.032;2023-08-12T14:01:53;3.37;;;2.80;;
34783;SDS011;20998;51.388;7.032;2023-08-12T14:04:19;3.70;;;2.70;;
34783;SDS011;20998;51.388;7.032;2023-08-12T14:06:45;4.27;;;2.57;;
34783;SDS011;20998;51.388;7.032;2023-08-12T14:09:11;4.60;;;3.13;;
34783;SDS011;20998;51.388;7.032;2023-08-12T14:11:39;3.60;;;2.97;;
34783;SDS011;20998;51.388;7.032;2023-08-12T14:14:05;4.80;;;3.17;;
34783;SDS011;20998;51.388;7.032;2023-08-12T14:16:31;7.07;;;3.80;;
34783;SDS011;20998;51.388;7.032;2023-08-12T14:18:57;4.50;;;3.13;;
34783;SDS011;20998;51.388;7.032;2023-08-12T14:21:23;3.63;;;3.00;;
34783;SDS011;20998;51.388;7.032;2023-08-12T14:23:48;5.43;;;3.43;;
34783;SDS011;20998;51.388;7.032;2023-08-12T14:26:14;3.50;;;2.80;;
34783;SDS011;20998;51.388;7.032;2023-08-12T14:28:40;5.07;;;3.30;;
34783;SDS011;20998;51.388;7.032;2023-08-12T14:31:06;4.07;;;3.50;;
34783;SDS011;20998;51.388;7.032;2023-08-12T14:33:32;8.13;;;4.37;;
34783;SDS011;20998;51.388;7.032;2023-08-12T14:35:58;5.87;;;4.27;;
34783;SDS011;20998;51.388;7.032;2023-08-12T14:38:24;10.63;;;5.10;;
34783;SDS011;20998;51.388;7.032;2023-08-12T14:40:50;5.70;;;4.50;;
34783;SDS011;20998;51.388;7.032;2023-08-12T14:43:16;5.67;;;4.10;;
34783;SDS011;20998;51.388;7.032;2023-08-12T14:45:45;6.77;;;4.80;;
34783;SDS011;20998;51.388;7.032;2023-08-12T14:48:11;6.77;;;3.77;;
34783;SDS011;20998;51.388;7.032;2023-08-12T14:50:37;5.83;;;4.23;;
34783;SDS011;20998;51.388;7.032;2023-08-12T14:53:03;3.80;;;3.07;;
34783;SDS011;20998;51.388;7.032;2023-08-12T14:55:29;5.40;;;4.17;;